sensor_id;sensor_type;location;lat;lon;timestamp;temperature;humidity
17659;DHT22;8948;51.534;8.262;2023-07-08T00:00:50;21.90;47.60
17659;DHT22;8948;51.534;8.262;2023-07-08T00:10:59;21.80;47.50
17659;DHT22;8948;51.534;8.262;2023-07-08T00:16:00;21.70;47.90
17659;DHT22;8948;51.534;8.262;2023-07-08T00:21:00;21.60;47.80
17659;DHT22;8948;51.534;8.262;2023-07-08T00:26:01;21.60;48.10
17659;DHT22;8948;51.534;8.262;2023-07-08T00:31:02;21.50;48.40
17659;DHT22;8948;51.534;8.262;2023-07-08T00:36:11;21.40;48.60
17659;DHT22;8948;51.534;8.262;2023-07-08T00:41:32;21.40;48.90
17659;DHT22;8948;51.534;8.262;2023-07-08T00:47:02;21.30;48.50
17659;DHT22;8948;51.534;8.262;2023-07-08T00:52:25;21.30;48.50
17659;DHT22;8948;51.534;8.262;2023-07-08T00:57:29;21.30;48.80
17659;DHT22;8948;51.534;8.262;2023-07-08T01:02:33;21.20;48.60
17659;DHT22;8948;51.534;8.262;2023-07-08T01:07:36;21.30;48.70
17659;DHT22;8948;51.534;8.262;2023-07-08T01:12:44;21.30;48.10
17659;DHT22;8948;51.534;8.262;2023-07-08T01:17:46;21.20;48.30
17659;DHT22;8948;51.534;8.262;2023-07-08T01:22:47;21.20;47.90
17659;DHT22;8948;51.534;8.262;2023-07-08T01:27:49;21.20;47.90
17659;DHT22;8948;51.534;8.262;2023-07-08T01:32:59;21.20;47.50
17659;DHT22;8948;51.534;8.262;2023-07-08T01:38:03;21.20;47.70
17659;DHT22;8948;51.534;8.262;2023-07-08T01:43:05;21.20;47.50
17659;DHT22;8948;51.534;8.262;2023-07-08T01:48:12;21.20;47.60
17659;DHT22;8948;51.534;8.262;2023-07-08T01:53:19;21.20;48.10
17659;DHT22;8948;51.534;8.262;2023-07-08T01:58:20;21.20;47.70
17659;DHT22;8948;51.534;8.262;2023-07-08T02:03:21;21.10;47.60
17659;DHT22;8948;51.534;8.262;2023-07-08T02:08:22;21.10;47.20
17659;DHT22;8948;51.534;8.262;2023-07-08T02:13:24;21.10;47.40
17659;DHT22;8948;51.534;8.262;2023-07-08T02:18:24;21.00;47.50
17659;DHT22;8948;51.534;8.262;2023-07-08T02:23:25;21.00;47.40
17659;DHT22;8948;51.534;8.262;2023-07-08T02:28:26;21.00;47.20
17659;DHT22;8948;51.534;8.262;2023-07-08T02:33:26;21.00;47.40
17659;DHT22;8948;51.534;8.262;2023-07-08T02:38:33;21.00;47.10
17659;DHT22;8948;51.534;8.262;2023-07-08T02:43:34;21.00;47.20
17659;DHT22;8948;51.534;8.262;2023-07-08T02:48:35;21.00;47.30
17659;DHT22;8948;51.534;8.262;2023-07-08T02:53:35;21.00;47.00
17659;DHT22;8948;51.534;8.262;2023-07-08T02:58:36;21.00;47.50
17659;DHT22;8948;51.534;8.262;2023-07-08T03:03:36;20.90;47.50
17659;DHT22;8948;51.534;8.262;2023-07-08T03:08:38;20.80;47.60
17659;DHT22;8948;51.534;8.262;2023-07-08T03:13:39;20.80;47.90
17659;DHT22;8948;51.534;8.262;2023-07-08T03:18:40;20.80;47.40
17659;DHT22;8948;51.534;8.262;2023-07-08T03:23:48;20.80;47.40
17659;DHT22;8948;51.534;8.262;2023-07-08T03:28:50;20.90;47.20
17659;DHT22;8948;51.534;8.262;2023-07-08T03:33:51;20.80;47.80
17659;DHT22;8948;51.534;8.262;2023-07-08T03:38:55;20.70;47.80
17659;DHT22;8948;51.534;8.262;2023-07-08T03:43:56;20.70;48.00
17659;DHT22;8948;51.534;8.262;2023-07-08T03:48:56;20.70;47.70
17659;DHT22;8948;51.534;8.262;2023-07-08T03:53:57;20.70;47.50
17659;DHT22;8948;51.534;8.262;2023-07-08T03:58:58;20.80;47.60
17659;DHT22;8948;51.534;8.262;2023-07-08T04:03:59;20.90;48.00
17659;DHT22;8948;51.534;8.262;2023-07-08T04:09:00;20.90;47.70
17659;DHT22;8948;51.534;8.262;2023-07-08T04:14:00;21.00;47.50
17659;DHT22;8948;51.534;8.262;2023-07-08T04:19:01;21.10;47.40
17659;DHT22;8948;51.534;8.262;2023-07-08T04:24:01;21.20;47.80
17659;DHT22;8948;51.534;8.262;2023-07-08T04:29:02;21.20;47.30
17659;DHT22;8948;51.534;8.262;2023-07-08T04:34:03;21.30;47.20
17659;DHT22;8948;51.534;8.262;2023-07-08T04:39:05;21.50;47.00
17659;DHT22;8948;51.534;8.262;2023-07-08T04:44:13;21.60;47.10
17659;DHT22;8948;51.534;8.262;2023-07-08T04:49:14;21.70;47.30
17659;DHT22;8948;51.534;8.262;2023-07-08T04:54:14;21.80;47.20
17659;DHT22;8948;51.534;8.262;2023-07-08T04:59:17;21.80;47.40
17659;DHT22;8948;51.534;8.262;2023-07-08T05:04:19;21.80;47.20
17659;DHT22;8948;51.534;8.262;2023-07-08T05:09:20;21.70;47.40
17659;DHT22;8948;51.534;8.262;2023-07-08T05:14:23;21.80;47.10
17659;DHT22;8948;51.534;8.262;2023-07-08T05:19:24;21.70;47.60
17659;DHT22;8948;51.534;8.262;2023-07-08T05:24:25;21.70;48.10
17659;DHT22;8948;51.534;8.262;2023-07-08T05:29:26;21.70;47.60
17659;DHT22;8948;51.534;8.262;2023-07-08T05:34:27;21.80;47.90
17659;DHT22;8948;51.534;8.262;2023-07-08T05:39:29;21.80;47.50
17659;DHT22;8948;51.534;8.262;2023-07-08T05:44:30;22.00;47.30
17659;DHT22;8948;51.534;8.262;2023-07-08T05:49:31;22.10;47.10
17659;DHT22;8948;51.534;8.262;2023-07-08T05:54:31;22.20;47.70
17659;DHT22;8948;51.534;8.262;2023-07-08T05:59:32;22.20;47.70
17659;DHT22;8948;51.534;8.262;2023-07-08T06:04:33;22.30;47.50
17659;DHT22;8948;51.534;8.262;2023-07-08T06:09:34;22.30;47.00
17659;DHT22;8948;51.534;8.262;2023-07-08T06:14:35;22.20;47.50
17659;DHT22;8948;51.534;8.262;2023-07-08T06:19:35;22.20;47.40
17659;DHT22;8948;51.534;8.262;2023-07-08T06:24:36;22.40;47.40
17659;DHT22;8948;51.534;8.262;2023-07-08T06:29:37;22.50;47.50
17659;DHT22;8948;51.534;8.262;2023-07-08T06:34:37;22.50;47.20
17659;DHT22;8948;51.534;8.262;2023-07-08T06:39:38;22.70;47.20
17659;DHT22;8948;51.534;8.262;2023-07-08T06:44:39;22.90;46.90
17659;DHT22;8948;51.534;8.262;2023-07-08T06:49:39;23.20;47.00
17659;DHT22;8948;51.534;8.262;2023-07-08T06:54:40;23.60;46.20
17659;DHT22;8948;51.534;8.262;2023-07-08T06:59:41;23.90;45.50
17659;DHT22;8948;51.534;8.262;2023-07-08T07:04:41;23.80;45.70
17659;DHT22;8948;51.534;8.262;2023-07-08T07:09:42;23.70;46.40
17659;DHT22;8948;51.534;8.262;2023-07-08T07:14:42;24.10;45.60
17659;DHT22;8948;51.534;8.262;2023-07-08T07:19:43;24.50;46.00
17659;DHT22;8948;51.534;8.262;2023-07-08T07:24:43;24.80;44.80
17659;DHT22;8948;51.534;8.262;2023-07-08T07:29:46;25.10;46.10
17659;DHT22;8948;51.534;8.262;2023-07-08T07:34:48;25.40;45.00
17659;DHT22;8948;51.534;8.262;2023-07-08T07:39:49;25.60;43.50
17659;DHT22;8948;51.534;8.262;2023-07-08T07:44:50;25.90;42.70
17659;DHT22;8948;51.534;8.262;2023-07-08T07:49:50;26.10;44.50
17659;DHT22;8948;51.534;8.262;2023-07-08T07:54:51;26.40;44.00
17659;DHT22;8948;51.534;8.262;2023-07-08T07:59:52;26.60;44.00
17659;DHT22;8948;51.534;8.262;2023-07-08T08:04:52;26.90;43.10
17659;DHT22;8948;51.534;8.262;2023-07-08T08:09:53;27.10;43.30
17659;DHT22;8948;51.534;8.262;2023-07-08T08:14:53;27.40;43.60
17659;DHT22;8948;51.534;8.262;2023-07-08T08:19:54;27.60;43.30
17659;DHT22;8948;51.534;8.262;2023-07-08T08:24:54;27.90;42.70
17659;DHT22;8948;51.534;8.262;2023-07-08T08:29:55;28.20;43.70
17659;DHT22;8948;51.534;8.262;2023-07-08T08:34:56;28.50;42.40
17659;DHT22;8948;51.534;8.262;2023-07-08T08:39:56;28.80;42.50
17659;DHT22;8948;51.534;8.262;2023-07-08T08:44:59;29.00;40.90
17659;DHT22;8948;51.534;8.262;2023-07-08T08:55:17;29.50;37.10
17659;DHT22;8948;51.534;8.262;2023-07-08T09:00:31;29.60;36.60
17659;DHT22;8948;51.534;8.262;2023-07-08T09:05:36;29.80;36.80
17659;DHT22;8948;51.534;8.262;2023-07-08T09:10:50;30.10;38.00
17659;DHT22;8948;51.534;8.262;2023-07-08T09:21:18;30.30;35.10
17659;DHT22;8948;51.534;8.262;2023-07-08T09:26:22;30.60;36.60
17659;DHT22;8948;51.534;8.262;2023-07-08T09:31:27;30.90;35.00
17659;DHT22;8948;51.534;8.262;2023-07-08T09:36:27;31.10;37.30
17659;DHT22;8948;51.534;8.262;2023-07-08T09:41:30;31.20;34.70
17659;DHT22;8948;51.534;8.262;2023-07-08T09:46:36;31.40;34.00
17659;DHT22;8948;51.534;8.262;2023-07-08T09:51:37;31.70;33.40
17659;DHT22;8948;51.534;8.262;2023-07-08T09:56:43;31.90;34.90
17659;DHT22;8948;51.534;8.262;2023-07-08T10:01:44;32.10;32.50
17659;DHT22;8948;51.534;8.262;2023-07-08T10:06:46;32.20;32.30
17659;DHT22;8948;51.534;8.262;2023-07-08T10:11:56;32.30;32.10
17659;DHT22;8948;51.534;8.262;2023-07-08T10:16:57;32.40;31.00
17659;DHT22;8948;51.534;8.262;2023-07-08T10:22:25;32.60;33.10
17659;DHT22;8948;51.534;8.262;2023-07-08T10:33:18;32.90;30.50
17659;DHT22;8948;51.534;8.262;2023-07-08T11:05:23;33.80;31.70
17659;DHT22;8948;51.534;8.262;2023-07-08T11:10:36;34.00;31.90
17659;DHT22;8948;51.534;8.262;2023-07-08T11:21:13;34.30;28.00
17659;DHT22;8948;51.534;8.262;2023-07-08T11:26:37;34.30;29.70
17659;DHT22;8948;51.534;8.262;2023-07-08T11:31:41;34.30;27.20
17659;DHT22;8948;51.534;8.262;2023-07-08T11:36:43;34.40;29.30
17659;DHT22;8948;51.534;8.262;2023-07-08T11:41:44;34.40;30.90
17659;DHT22;8948;51.534;8.262;2023-07-08T11:46:54;34.60;30.00
17659;DHT22;8948;51.534;8.262;2023-07-08T11:51:57;34.70;32.10
17659;DHT22;8948;51.534;8.262;2023-07-08T11:57:04;35.10;30.90
17659;DHT22;8948;51.534;8.262;2023-07-08T12:02:16;35.20;29.30
17659;DHT22;8948;51.534;8.262;2023-07-08T12:07:19;35.30;31.30
17659;DHT22;8948;51.534;8.262;2023-07-08T12:12:32;35.50;34.00
17659;DHT22;8948;51.534;8.262;2023-07-08T12:17:36;35.60;33.60
17659;DHT22;8948;51.534;8.262;2023-07-08T12:22:39;35.60;29.50
17659;DHT22;8948;51.534;8.262;2023-07-08T12:27:39;35.80;31.10
17659;DHT22;8948;51.534;8.262;2023-07-08T12:32:40;35.80;32.50
17659;DHT22;8948;51.534;8.262;2023-07-08T12:37:41;35.60;31.90
17659;DHT22;8948;51.534;8.262;2023-07-08T12:42:42;35.80;31.10
17659;DHT22;8948;51.534;8.262;2023-07-08T12:47:43;36.00;32.00
17659;DHT22;8948;51.534;8.262;2023-07-08T12:52:45;36.20;31.00
17659;DHT22;8948;51.534;8.262;2023-07-08T12:57:48;36.30;30.50
17659;DHT22;8948;51.534;8.262;2023-07-08T13:02:56;36.30;30.50
17659;DHT22;8948;51.534;8.262;2023-07-08T13:07:58;36.30;30.60
17659;DHT22;8948;51.534;8.262;2023-07-08T13:13:02;36.30;31.20
17659;DHT22;8948;51.534;8.262;2023-07-08T13:18:04;36.40;31.00
17659;DHT22;8948;51.534;8.262;2023-07-08T13:23:05;36.20;31.10
17659;DHT22;8948;51.534;8.262;2023-07-08T13:28:28;36.40;32.50
17659;DHT22;8948;51.534;8.262;2023-07-08T13:33:31;36.40;31.60
17659;DHT22;8948;51.534;8.262;2023-07-08T13:38:34;36.30;31.70
17659;DHT22;8948;51.534;8.262;2023-07-08T13:43:39;36.60;30.90
17659;DHT22;8948;51.534;8.262;2023-07-08T13:48:43;36.60;30.40
17659;DHT22;8948;51.534;8.262;2023-07-08T13:53:47;37.00;32.60
17659;DHT22;8948;51.534;8.262;2023-07-08T13:58:53;37.20;31.40
17659;DHT22;8948;51.534;8.262;2023-07-08T14:04:00;37.20;29.50
17659;DHT22;8948;51.534;8.262;2023-07-08T14:09:14;36.90;32.00
17659;DHT22;8948;51.534;8.262;2023-07-08T14:14:15;36.90;29.70
17659;DHT22;8948;51.534;8.262;2023-07-08T14:19:27;37.10;31.00
17659;DHT22;8948;51.534;8.262;2023-07-08T14:24:29;37.00;29.50
17659;DHT22;8948;51.534;8.262;2023-07-08T14:29:30;37.10;30.20
17659;DHT22;8948;51.534;8.262;2023-07-08T14:34:33;37.30;29.30
17659;DHT22;8948;51.534;8.262;2023-07-08T14:39:34;37.00;29.20
17659;DHT22;8948;51.534;8.262;2023-07-08T14:44:35;37.20;30.50
17659;DHT22;8948;51.534;8.262;2023-07-08T14:49:36;37.20;30.40
17659;DHT22;8948;51.534;8.262;2023-07-08T14:54:37;37.20;28.40
17659;DHT22;8948;51.534;8.262;2023-07-08T14:59:37;37.30;32.60
17659;DHT22;8948;51.534;8.262;2023-07-08T15:04:38;37.60;30.40
17659;DHT22;8948;51.534;8.262;2023-07-08T15:09:39;37.80;30.80
17659;DHT22;8948;51.534;8.262;2023-07-08T15:14:39;37.50;30.80
17659;DHT22;8948;51.534;8.262;2023-07-08T15:19:40;36.70;30.00
17659;DHT22;8948;51.534;8.262;2023-07-08T15:24:41;35.90;30.50
17659;DHT22;8948;51.534;8.262;2023-07-08T15:29:42;35.80;30.40
17659;DHT22;8948;51.534;8.262;2023-07-08T15:34:42;36.40;32.60
17659;DHT22;8948;51.534;8.262;2023-07-08T15:39:43;36.90;33.00
17659;DHT22;8948;51.534;8.262;2023-07-08T15:44:43;37.30;32.50
17659;DHT22;8948;51.534;8.262;2023-07-08T15:49:44;37.10;31.20
17659;DHT22;8948;51.534;8.262;2023-07-08T15:54:44;37.10;30.20
17659;DHT22;8948;51.534;8.262;2023-07-08T15:59:45;37.20;29.80
17659;DHT22;8948;51.534;8.262;2023-07-08T16:04:46;37.30;31.10
17659;DHT22;8948;51.534;8.262;2023-07-08T16:09:47;37.30;31.00
17659;DHT22;8948;51.534;8.262;2023-07-08T16:14:48;37.10;29.00
17659;DHT22;8948;51.534;8.262;2023-07-08T16:19:48;36.90;29.80
17659;DHT22;8948;51.534;8.262;2023-07-08T16:24:49;36.70;29.50
17659;DHT22;8948;51.534;8.262;2023-07-08T16:29:49;36.30;31.10
17659;DHT22;8948;51.534;8.262;2023-07-08T16:34:50;36.00;32.20
17659;DHT22;8948;51.534;8.262;2023-07-08T16:39:51;35.50;31.70
17659;DHT22;8948;51.534;8.262;2023-07-08T16:44:52;35.20;33.30
17659;DHT22;8948;51.534;8.262;2023-07-08T16:49:53;35.00;33.60
17659;DHT22;8948;51.534;8.262;2023-07-08T16:54:54;35.00;34.20
17659;DHT22;8948;51.534;8.262;2023-07-08T16:59:54;34.70;33.70
17659;DHT22;8948;51.534;8.262;2023-07-08T17:04:55;34.80;33.40
17659;DHT22;8948;51.534;8.262;2023-07-08T17:09:56;34.70;34.00
17659;DHT22;8948;51.534;8.262;2023-07-08T17:14:56;34.60;34.60
17659;DHT22;8948;51.534;8.262;2023-07-08T17:20:06;34.40;34.20
17659;DHT22;8948;51.534;8.262;2023-07-08T17:25:24;34.40;34.40
17659;DHT22;8948;51.534;8.262;2023-07-08T17:30:25;34.30;34.50
17659;DHT22;8948;51.534;8.262;2023-07-08T17:35:26;34.30;35.50
17659;DHT22;8948;51.534;8.262;2023-07-08T17:40:27;34.20;35.20
17659;DHT22;8948;51.534;8.262;2023-07-08T17:45:36;34.10;35.20
17659;DHT22;8948;51.534;8.262;2023-07-08T17:50:39;34.00;36.90
17659;DHT22;8948;51.534;8.262;2023-07-08T17:55:40;33.80;38.40
17659;DHT22;8948;51.534;8.262;2023-07-08T18:00:41;33.60;38.40
17659;DHT22;8948;51.534;8.262;2023-07-08T18:05:41;33.40;38.10
17659;DHT22;8948;51.534;8.262;2023-07-08T18:10:42;33.30;37.50
17659;DHT22;8948;51.534;8.262;2023-07-08T18:15:43;33.20;37.80
17659;DHT22;8948;51.534;8.262;2023-07-08T18:20:51;33.10;38.70
17659;DHT22;8948;51.534;8.262;2023-07-08T18:25:52;33.10;37.90
17659;DHT22;8948;51.534;8.262;2023-07-08T18:30:53;33.10;38.20
17659;DHT22;8948;51.534;8.262;2023-07-08T18:35:53;33.00;37.50
17659;DHT22;8948;51.534;8.262;2023-07-08T18:40:55;32.60;36.40
17659;DHT22;8948;51.534;8.262;2023-07-08T18:45:56;32.30;36.80
17659;DHT22;8948;51.534;8.262;2023-07-08T18:50:57;32.00;36.60
17659;DHT22;8948;51.534;8.262;2023-07-08T18:55:57;31.70;37.10
17659;DHT22;8948;51.534;8.262;2023-07-08T19:00:58;31.50;37.40
17659;DHT22;8948;51.534;8.262;2023-07-08T19:05:59;31.30;37.00
17659;DHT22;8948;51.534;8.262;2023-07-08T19:10:59;31.10;37.40
17659;DHT22;8948;51.534;8.262;2023-07-08T19:16:00;30.90;37.80
17659;DHT22;8948;51.534;8.262;2023-07-08T19:21:01;30.80;37.80
17659;DHT22;8948;51.534;8.262;2023-07-08T19:26:01;30.60;38.10
17659;DHT22;8948;51.534;8.262;2023-07-08T19:31:02;30.60;38.20
17659;DHT22;8948;51.534;8.262;2023-07-08T19:36:03;30.40;37.80
17659;DHT22;8948;51.534;8.262;2023-07-08T19:41:10;30.30;37.90
17659;DHT22;8948;51.534;8.262;2023-07-08T19:46:14;30.10;37.90
17659;DHT22;8948;51.534;8.262;2023-07-08T19:51:15;30.00;38.40
17659;DHT22;8948;51.534;8.262;2023-07-08T19:56:18;29.80;38.20
17659;DHT22;8948;51.534;8.262;2023-07-08T20:01:21;29.60;38.70
17659;DHT22;8948;51.534;8.262;2023-07-08T20:06:23;29.40;39.00
17659;DHT22;8948;51.534;8.262;2023-07-08T20:11:24;29.30;39.40
17659;DHT22;8948;51.534;8.262;2023-07-08T20:16:26;29.20;39.70
17659;DHT22;8948;51.534;8.262;2023-07-08T20:21:27;29.10;40.30
17659;DHT22;8948;51.534;8.262;2023-07-08T20:26:31;28.90;40.20
17659;DHT22;8948;51.534;8.262;2023-07-08T20:31:33;28.90;40.10
17659;DHT22;8948;51.534;8.262;2023-07-08T20:36:33;28.70;40.50
17659;DHT22;8948;51.534;8.262;2023-07-08T20:41:34;28.60;40.80
17659;DHT22;8948;51.534;8.262;2023-07-08T20:46:34;28.50;41.60
17659;DHT22;8948;51.534;8.262;2023-07-08T20:51:35;28.40;41.80
17659;DHT22;8948;51.534;8.262;2023-07-08T20:56:36;28.20;41.90
17659;DHT22;8948;51.534;8.262;2023-07-08T21:01:37;27.90;42.30
17659;DHT22;8948;51.534;8.262;2023-07-08T21:06:38;27.50;43.10
17659;DHT22;8948;51.534;8.262;2023-07-08T21:11:38;27.40;43.00
17659;DHT22;8948;51.534;8.262;2023-07-08T21:16:39;27.40;43.20
17659;DHT22;8948;51.534;8.262;2023-07-08T21:21:41;27.50;43.00
17659;DHT22;8948;51.534;8.262;2023-07-08T21:26:43;27.50;43.30
17659;DHT22;8948;51.534;8.262;2023-07-08T21:31:44;27.50;42.60
17659;DHT22;8948;51.534;8.262;2023-07-08T21:36:44;27.30;43.30
17659;DHT22;8948;51.534;8.262;2023-07-08T21:41:47;27.20;43.60
17659;DHT22;8948;51.534;8.262;2023-07-08T21:46:47;27.20;43.80
17659;DHT22;8948;51.534;8.262;2023-07-08T21:51:48;27.10;44.20
17659;DHT22;8948;51.534;8.262;2023-07-08T21:56:49;26.90;44.80
17659;DHT22;8948;51.534;8.262;2023-07-08T22:01:49;26.70;45.20
17659;DHT22;8948;51.534;8.262;2023-07-08T22:06:50;26.60;45.60
17659;DHT22;8948;51.534;8.262;2023-07-08T22:11:52;26.40;45.70
17659;DHT22;8948;51.534;8.262;2023-07-08T22:16:53;26.30;46.60
17659;DHT22;8948;51.534;8.262;2023-07-08T22:21:53;26.20;47.00
17659;DHT22;8948;51.534;8.262;2023-07-08T22:26:55;26.20;46.60
17659;DHT22;8948;51.534;8.262;2023-07-08T22:31:56;26.20;46.80
17659;DHT22;8948;51.534;8.262;2023-07-08T22:36:56;26.10;46.50
17659;DHT22;8948;51.534;8.262;2023-07-08T22:41:57;26.00;47.20
17659;DHT22;8948;51.534;8.262;2023-07-08T22:46:58;26.00;46.60
17659;DHT22;8948;51.534;8.262;2023-07-08T22:51:58;25.90;46.80
17659;DHT22;8948;51.534;8.262;2023-07-08T22:56:59;25.70;47.10
17659;DHT22;8948;51.534;8.262;2023-07-08T23:02:00;25.70;47.40
17659;DHT22;8948;51.534;8.262;2023-07-08T23:07:03;25.60;47.50
17659;DHT22;8948;51.534;8.262;2023-07-08T23:12:04;25.60;47.10
17659;DHT22;8948;51.534;8.262;2023-07-08T23:17:11;25.50;47.40
17659;DHT22;8948;51.534;8.262;2023-07-08T23:22:17;25.40;47.20
17659;DHT22;8948;51.534;8.262;2023-07-08T23:27:21;25.30;47.50
17659;DHT22;8948;51.534;8.262;2023-07-08T23:32:22;25.20;48.10
17659;DHT22;8948;51.534;8.262;2023-07-08T23:37:26;25.20;48.40
17659;DHT22;8948;51.534;8.262;2023-07-08T23:42:30;25.20;48.40
17659;DHT22;8948;51.534;8.262;2023-07-08T23:47:31;25.20;48.70
17659;DHT22;8948;51.534;8.262;2023-07-08T23:52:32;25.00;48.70
17659;DHT22;8948;51.534;8.262;2023-07-08T23:57:32;24.80;48.80
